sensor_id;sensor_type;location;lat;lon;timestamp;P1;durP1;ratioP1;P2;durP2;ratioP2
80404;SDS011;69733;48.744;9.176;2023-09-08T00:01:50;1.67;;;1.25;;
80404;SDS011;69733;48.744;9.176;2023-09-08T00:04:15;0.40;;;0.40;;
80404;SDS011;69733;48.744;9.176;2023-09-08T00:06:41;2.07;;;1.17;;
80404;SDS011;69733;48.744;9.176;2023-09-08T00:09:06;1.17;;;0.40;;
80404;SDS011;69733;48.744;9.176;2023-09-08T00:11:32;0.70;;;0.47;;
80404;SDS011;69733;48.744;9.176;2023-09-08T00:13:57;1.40;;;0.65;;
80404;SDS011;69733;48.744;9.176;2023-09-08T00:16:23;1.35;;;0.40;;
80404;SDS011;69733;48.744;9.176;2023-09-08T00:18:48;1.33;;;0.97;;
80404;SDS011;69733;48.744;9.176;2023-09-08T00:21:14;0.82;;;0.60;;
80404;SDS011;69733;48.744;9.176;2023-09-08T00:23:40;1.17;;;0.63;;
80404;SDS011;69733;48.744;9.176;2023-09-08T00:26:05;1.90;;;0.70;;
80404;SDS011;69733;48.744;9.176;2023-09-08T00:28:31;1.05;;;0.55;;
80404;SDS011;69733;48.744;9.176;2023-09-08T00:30:56;0.77;;;0.45;;
80404;SDS011;69733;48.744;9.176;2023-09-08T00:33:24;0.82;;;0.45;;
80404;SDS011;69733;48.744;9.176;2023-09-08T00:35:50;0.40;;;0.30;;
80404;SDS011;69733;48.744;9.176;2023-09-08T00:38:15;1.08;;;0.80;;
80404;SDS011;69733;48.744;9.176;2023-09-08T00:40:40;1.20;;;0.83;;
80404;SDS011;69733;48.744;9.176;2023-09-08T00:43:06;1.00;;;0.87;;
80404;SDS011;69733;48.744;9.176;2023-09-08T00:45:31;0.83;;;0.70;;
80404;SDS011;69733;48.744;9.176;2023-09-08T00:47:58;1.70;;;0.60;;
80404;SDS011;69733;48.744;9.176;2023-09-08T00:50:23;1.13;;;0.60;;
80404;SDS011;69733;48.744;9.176;2023-09-08T00:52:49;0.60;;;0.40;;
80404;SDS011;69733;48.744;9.176;2023-09-08T00:55:14;1.30;;;0.38;;
80404;SDS011;69733;48.744;9.176;2023-09-08T00:57:39;0.68;;;0.60;;
80404;SDS011;69733;48.744;9.176;2023-09-08T01:00:05;1.55;;;1.25;;
80404;SDS011;69733;48.744;9.176;2023-09-08T01:02:31;1.75;;;0.73;;
80404;SDS011;69733;48.744;9.176;2023-09-08T01:04:57;2.53;;;0.50;;
80404;SDS011;69733;48.744;9.176;2023-09-08T01:07:24;0.70;;;0.30;;
80404;SDS011;69733;48.744;9.176;2023-09-08T01:09:51;1.35;;;0.68;;
80404;SDS011;69733;48.744;9.176;2023-09-08T01:12:17;2.40;;;0.82;;
80404;SDS011;69733;48.744;9.176;2023-09-08T01:14:44;1.25;;;0.68;;
80404;SDS011;69733;48.744;9.176;2023-09-08T01:17:09;0.73;;;0.20;;
80404;SDS011;69733;48.744;9.176;2023-09-08T01:19:36;1.98;;;0.77;;
80404;SDS011;69733;48.744;9.176;2023-09-08T01:22:07;0.65;;;0.47;;
80404;SDS011;69733;48.744;9.176;2023-09-08T01:27:37;1.25;;;1.15;;
80404;SDS011;69733;48.744;9.176;2023-09-08T01:30:04;0.95;;;0.40;;
80404;SDS011;69733;48.744;9.176;2023-09-08T01:32:31;1.90;;;0.45;;
80404;SDS011;69733;48.744;9.176;2023-09-08T01:34:57;0.90;;;0.57;;
80404;SDS011;69733;48.744;9.176;2023-09-08T01:37:23;1.02;;;0.40;;
80404;SDS011;69733;48.744;9.176;2023-09-08T01:39:49;1.33;;;0.70;;
80404;SDS011;69733;48.744;9.176;2023-09-08T01:42:14;0.68;;;0.68;;
80404;SDS011;69733;48.744;9.176;2023-09-08T01:44:39;0.33;;;0.20;;
80404;SDS011;69733;48.744;9.176;2023-09-08T01:47:05;1.73;;;1.00;;
80404;SDS011;69733;48.744;9.176;2023-09-08T01:49:30;1.08;;;0.60;;
80404;SDS011;69733;48.744;9.176;2023-09-08T01:51:55;0.40;;;0.30;;
80404;SDS011;69733;48.744;9.176;2023-09-08T01:54:21;0.30;;;0.22;;
80404;SDS011;69733;48.744;9.176;2023-09-08T01:56:46;0.65;;;0.43;;
80404;SDS011;69733;48.744;9.176;2023-09-08T01:59:12;0.57;;;0.30;;
80404;SDS011;69733;48.744;9.176;2023-09-08T02:01:37;0.47;;;0.35;;
80404;SDS011;69733;48.744;9.176;2023-09-08T02:04:02;0.30;;;0.20;;
80404;SDS011;69733;48.744;9.176;2023-09-08T02:06:28;1.40;;;1.20;;
80404;SDS011;69733;48.744;9.176;2023-09-08T02:08:53;1.43;;;0.87;;
80404;SDS011;69733;48.744;9.176;2023-09-08T02:11:18;0.52;;;0.35;;
80404;SDS011;69733;48.744;9.176;2023-09-08T02:13:44;0.50;;;0.20;;
80404;SDS011;69733;48.744;9.176;2023-09-08T02:16:13;0.20;;;0.10;;
80404;SDS011;69733;48.744;9.176;2023-09-08T02:18:39;2.33;;;0.88;;
80404;SDS011;69733;48.744;9.176;2023-09-08T02:21:04;0.40;;;0.30;;
80404;SDS011;69733;48.744;9.176;2023-09-08T02:23:30;0.73;;;0.60;;
80404;SDS011;69733;48.744;9.176;2023-09-08T02:25:55;1.17;;;0.57;;
80404;SDS011;69733;48.744;9.176;2023-09-08T02:28:20;1.17;;;0.82;;
80404;SDS011;69733;48.744;9.176;2023-09-08T02:30:46;0.30;;;0.20;;
80404;SDS011;69733;48.744;9.176;2023-09-08T02:33:11;0.47;;;0.40;;
80404;SDS011;69733;48.744;9.176;2023-09-08T02:35:37;1.20;;;1.10;;
80404;SDS011;69733;48.744;9.176;2023-09-08T02:38:05;0.45;;;0.35;;
80404;SDS011;69733;48.744;9.176;2023-09-08T02:40:30;1.30;;;0.70;;
80404;SDS011;69733;48.744;9.176;2023-09-08T02:42:59;0.88;;;0.60;;
80404;SDS011;69733;48.744;9.176;2023-09-08T02:45:24;0.55;;;0.40;;
80404;SDS011;69733;48.744;9.176;2023-09-08T02:47:49;1.00;;;0.50;;
80404;SDS011;69733;48.744;9.176;2023-09-08T02:50:15;0.30;;;0.20;;
80404;SDS011;69733;48.744;9.176;2023-09-08T02:52:40;0.73;;;0.52;;
80404;SDS011;69733;48.744;9.176;2023-09-08T02:55:05;1.23;;;0.97;;
80404;SDS011;69733;48.744;9.176;2023-09-08T02:57:31;3.33;;;0.95;;
80404;SDS011;69733;48.744;9.176;2023-09-08T02:59:57;0.90;;;0.85;;
80404;SDS011;69733;48.744;9.176;2023-09-08T03:02:24;1.33;;;0.90;;
80404;SDS011;69733;48.744;9.176;2023-09-08T03:04:50;0.90;;;0.50;;
80404;SDS011;69733;48.744;9.176;2023-09-08T03:07:15;0.82;;;0.52;;
80404;SDS011;69733;48.744;9.176;2023-09-08T03:09:40;1.55;;;0.30;;
80404;SDS011;69733;48.744;9.176;2023-09-08T03:12:06;2.50;;;1.00;;
80404;SDS011;69733;48.744;9.176;2023-09-08T03:14:31;2.15;;;0.70;;
80404;SDS011;69733;48.744;9.176;2023-09-08T03:16:57;0.55;;;0.25;;
80404;SDS011;69733;48.744;9.176;2023-09-08T03:19:22;1.92;;;0.47;;
80404;SDS011;69733;48.744;9.176;2023-09-08T03:21:48;1.50;;;1.02;;
80404;SDS011;69733;48.744;9.176;2023-09-08T03:24:13;2.13;;;1.43;;
80404;SDS011;69733;48.744;9.176;2023-09-08T03:26:38;1.23;;;0.40;;
80404;SDS011;69733;48.744;9.176;2023-09-08T03:29:05;2.10;;;0.15;;
80404;SDS011;69733;48.744;9.176;2023-09-08T03:31:31;0.77;;;0.50;;
80404;SDS011;69733;48.744;9.176;2023-09-08T03:33:57;1.48;;;0.85;;
80404;SDS011;69733;48.744;9.176;2023-09-08T03:36:22;0.98;;;0.40;;
80404;SDS011;69733;48.744;9.176;2023-09-08T03:38:47;0.93;;;0.47;;
80404;SDS011;69733;48.744;9.176;2023-09-08T03:41:12;0.60;;;0.47;;
80404;SDS011;69733;48.744;9.176;2023-09-08T03:43:38;0.98;;;0.60;;
80404;SDS011;69733;48.744;9.176;2023-09-08T03:46:03;2.55;;;0.60;;
80404;SDS011;69733;48.744;9.176;2023-09-08T03:48:29;0.88;;;0.50;;
80404;SDS011;69733;48.744;9.176;2023-09-08T03:50:54;1.08;;;1.00;;
80404;SDS011;69733;48.744;9.176;2023-09-08T03:53:19;0.98;;;0.80;;
80404;SDS011;69733;48.744;9.176;2023-09-08T03:55:45;0.73;;;0.67;;
80404;SDS011;69733;48.744;9.176;2023-09-08T03:58:10;0.88;;;0.45;;
80404;SDS011;69733;48.744;9.176;2023-09-08T04:00:35;1.53;;;0.50;;
80404;SDS011;69733;48.744;9.176;2023-09-08T04:03:01;0.85;;;0.30;;
80404;SDS011;69733;48.744;9.176;2023-09-08T04:05:27;1.25;;;0.65;;
80404;SDS011;69733;48.744;9.176;2023-09-08T04:07:53;1.60;;;0.70;;
80404;SDS011;69733;48.744;9.176;2023-09-08T04:10:18;0.98;;;0.70;;
80404;SDS011;69733;48.744;9.176;2023-09-08T04:12:44;0.70;;;0.45;;
80404;SDS011;69733;48.744;9.176;2023-09-08T04:15:09;1.40;;;0.93;;
80404;SDS011;69733;48.744;9.176;2023-09-08T04:17:35;1.08;;;0.50;;
80404;SDS011;69733;48.744;9.176;2023-09-08T04:20:02;1.13;;;0.70;;
80404;SDS011;69733;48.744;9.176;2023-09-08T04:22:30;0.73;;;0.50;;
80404;SDS011;69733;48.744;9.176;2023-09-08T04:24:55;0.32;;;0.30;;
80404;SDS011;69733;48.744;9.176;2023-09-08T04:27:22;0.93;;;0.47;;
80404;SDS011;69733;48.744;9.176;2023-09-08T04:29:47;1.35;;;0.70;;
80404;SDS011;69733;48.744;9.176;2023-09-08T04:32:13;1.90;;;0.70;;
80404;SDS011;69733;48.744;9.176;2023-09-08T04:34:39;0.70;;;0.30;;
80404;SDS011;69733;48.744;9.176;2023-09-08T04:37:05;0.93;;;0.70;;
80404;SDS011;69733;48.744;9.176;2023-09-08T04:39:31;0.65;;;0.65;;
80404;SDS011;69733;48.744;9.176;2023-09-08T04:41:56;0.10;;;0.08;;
80404;SDS011;69733;48.744;9.176;2023-09-08T04:44:22;2.25;;;0.47;;
80404;SDS011;69733;48.744;9.176;2023-09-08T04:46:47;3.03;;;0.93;;
80404;SDS011;69733;48.744;9.176;2023-09-08T04:49:13;1.00;;;0.95;;
80404;SDS011;69733;48.744;9.176;2023-09-08T04:51:38;1.20;;;0.47;;
80404;SDS011;69733;48.744;9.176;2023-09-08T04:54:03;1.52;;;0.77;;
80404;SDS011;69733;48.744;9.176;2023-09-08T04:56:29;2.70;;;0.95;;
80404;SDS011;69733;48.744;9.176;2023-09-08T04:58:54;2.60;;;0.98;;
80404;SDS011;69733;48.744;9.176;2023-09-08T05:01:20;0.70;;;0.60;;
80404;SDS011;69733;48.744;9.176;2023-09-08T05:03:46;0.65;;;0.47;;
80404;SDS011;69733;48.744;9.176;2023-09-08T05:06:11;0.97;;;0.50;;
80404;SDS011;69733;48.744;9.176;2023-09-08T05:08:36;0.80;;;0.77;;
80404;SDS011;69733;48.744;9.176;2023-09-08T05:11:02;1.30;;;0.50;;
80404;SDS011;69733;48.744;9.176;2023-09-08T05:13:27;0.93;;;0.53;;
80404;SDS011;69733;48.744;9.176;2023-09-08T05:15:53;2.90;;;0.93;;
80404;SDS011;69733;48.744;9.176;2023-09-08T05:18:25;0.98;;;0.82;;
80404;SDS011;69733;48.744;9.176;2023-09-08T05:20:51;0.75;;;0.60;;
80404;SDS011;69733;48.744;9.176;2023-09-08T05:23:17;0.65;;;0.63;;
80404;SDS011;69733;48.744;9.176;2023-09-08T05:25:42;0.83;;;0.80;;
80404;SDS011;69733;48.744;9.176;2023-09-08T05:28:07;0.57;;;0.55;;
80404;SDS011;69733;48.744;9.176;2023-09-08T05:30:33;3.80;;;1.67;;
80404;SDS011;69733;48.744;9.176;2023-09-08T05:32:59;0.50;;;0.50;;
80404;SDS011;69733;48.744;9.176;2023-09-08T05:35:24;0.35;;;0.30;;
80404;SDS011;69733;48.744;9.176;2023-09-08T05:37:49;1.25;;;0.75;;
80404;SDS011;69733;48.744;9.176;2023-09-08T05:40:15;1.67;;;1.58;;
80404;SDS011;69733;48.744;9.176;2023-09-08T05:42:40;1.75;;;1.00;;
80404;SDS011;69733;48.744;9.176;2023-09-08T05:45:05;1.17;;;0.90;;
80404;SDS011;69733;48.744;9.176;2023-09-08T05:47:31;0.80;;;0.60;;
80404;SDS011;69733;48.744;9.176;2023-09-08T05:49:56;1.27;;;0.80;;
80404;SDS011;69733;48.744;9.176;2023-09-08T05:52:22;2.97;;;1.15;;
80404;SDS011;69733;48.744;9.176;2023-09-08T05:54:47;1.73;;;1.38;;
80404;SDS011;69733;48.744;9.176;2023-09-08T05:57:12;2.00;;;1.55;;
80404;SDS011;69733;48.744;9.176;2023-09-08T05:59:38;1.80;;;0.70;;
80404;SDS011;69733;48.744;9.176;2023-09-08T06:02:03;4.20;;;1.63;;
80404;SDS011;69733;48.744;9.176;2023-09-08T06:04:28;2.50;;;1.67;;
80404;SDS011;69733;48.744;9.176;2023-09-08T06:06:57;3.05;;;1.40;;
80404;SDS011;69733;48.744;9.176;2023-09-08T06:09:22;2.83;;;1.42;;
80404;SDS011;69733;48.744;9.176;2023-09-08T06:11:47;3.40;;;2.00;;
80404;SDS011;69733;48.744;9.176;2023-09-08T06:14:13;1.80;;;1.45;;
80404;SDS011;69733;48.744;9.176;2023-09-08T06:16:38;3.20;;;1.77;;
80404;SDS011;69733;48.744;9.176;2023-09-08T06:19:03;3.83;;;2.70;;
80404;SDS011;69733;48.744;9.176;2023-09-08T06:21:28;3.75;;;2.03;;
80404;SDS011;69733;48.744;9.176;2023-09-08T06:23:54;3.07;;;1.80;;
80404;SDS011;69733;48.744;9.176;2023-09-08T06:26:19;4.28;;;2.40;;
80404;SDS011;69733;48.744;9.176;2023-09-08T06:28:44;5.50;;;2.55;;
80404;SDS011;69733;48.744;9.176;2023-09-08T06:31:10;3.90;;;2.83;;
80404;SDS011;69733;48.744;9.176;2023-09-08T06:33:35;3.38;;;2.15;;
80404;SDS011;69733;48.744;9.176;2023-09-08T06:36:01;4.60;;;2.37;;
80404;SDS011;69733;48.744;9.176;2023-09-08T06:38:26;3.53;;;2.23;;
80404;SDS011;69733;48.744;9.176;2023-09-08T06:40:51;5.32;;;2.53;;
80404;SDS011;69733;48.744;9.176;2023-09-08T06:43:19;4.60;;;2.50;;
80404;SDS011;69733;48.744;9.176;2023-09-08T06:45:48;3.40;;;3.10;;
80404;SDS011;69733;48.744;9.176;2023-09-08T06:48:14;4.07;;;2.33;;
80404;SDS011;69733;48.744;9.176;2023-09-08T06:50:40;4.53;;;2.22;;
80404;SDS011;69733;48.744;9.176;2023-09-08T06:53:05;3.93;;;2.63;;
80404;SDS011;69733;48.744;9.176;2023-09-08T06:55:31;4.10;;;2.80;;
80404;SDS011;69733;48.744;9.176;2023-09-08T06:57:56;4.20;;;2.40;;
80404;SDS011;69733;48.744;9.176;2023-09-08T07:00:22;3.88;;;2.58;;
80404;SDS011;69733;48.744;9.176;2023-09-08T07:02:47;4.30;;;2.50;;
80404;SDS011;69733;48.744;9.176;2023-09-08T07:05:14;3.80;;;2.38;;
80404;SDS011;69733;48.744;9.176;2023-09-08T07:07:40;2.72;;;2.15;;
80404;SDS011;69733;48.744;9.176;2023-09-08T07:10:06;4.95;;;2.95;;
80404;SDS011;69733;48.744;9.176;2023-09-08T07:12:32;3.38;;;2.50;;
80404;SDS011;69733;48.744;9.176;2023-09-08T07:14:57;3.17;;;2.13;;
80404;SDS011;69733;48.744;9.176;2023-09-08T07:17:24;5.30;;;3.15;;
80404;SDS011;69733;48.744;9.176;2023-09-08T07:19:50;3.95;;;2.40;;
80404;SDS011;69733;48.744;9.176;2023-09-08T07:22:15;3.50;;;1.98;;
80404;SDS011;69733;48.744;9.176;2023-09-08T07:24:41;4.20;;;2.47;;
80404;SDS011;69733;48.744;9.176;2023-09-08T07:27:06;3.28;;;2.25;;
80404;SDS011;69733;48.744;9.176;2023-09-08T07:29:32;4.97;;;2.30;;
80404;SDS011;69733;48.744;9.176;2023-09-08T07:31:58;3.28;;;1.92;;
80404;SDS011;69733;48.744;9.176;2023-09-08T07:34:23;4.40;;;2.65;;
80404;SDS011;69733;48.744;9.176;2023-09-08T07:36:49;3.50;;;2.42;;
80404;SDS011;69733;48.744;9.176;2023-09-08T07:39:14;4.85;;;2.83;;
80404;SDS011;69733;48.744;9.176;2023-09-08T07:41:39;4.47;;;2.90;;
80404;SDS011;69733;48.744;9.176;2023-09-08T07:44:05;4.43;;;2.75;;
80404;SDS011;69733;48.744;9.176;2023-09-08T07:46:33;4.25;;;2.83;;
80404;SDS011;69733;48.744;9.176;2023-09-08T07:48:59;4.40;;;2.70;;
80404;SDS011;69733;48.744;9.176;2023-09-08T07:51:25;4.47;;;3.35;;
80404;SDS011;69733;48.744;9.176;2023-09-08T07:53:52;4.55;;;2.53;;
80404;SDS011;69733;48.744;9.176;2023-09-08T07:56:18;4.03;;;2.55;;
80404;SDS011;69733;48.744;9.176;2023-09-08T07:58:46;3.75;;;2.63;;
80404;SDS011;69733;48.744;9.176;2023-09-08T08:01:12;4.07;;;2.78;;
80404;SDS011;69733;48.744;9.176;2023-09-08T08:03:38;4.20;;;2.33;;
80404;SDS011;69733;48.744;9.176;2023-09-08T08:06:03;3.92;;;2.78;;
80404;SDS011;69733;48.744;9.176;2023-09-08T08:08:28;3.67;;;2.70;;
80404;SDS011;69733;48.744;9.176;2023-09-08T08:10:54;3.72;;;2.40;;
80404;SDS011;69733;48.744;9.176;2023-09-08T08:13:20;8.32;;;3.72;;
80404;SDS011;69733;48.744;9.176;2023-09-08T08:15:45;4.43;;;2.30;;
80404;SDS011;69733;48.744;9.176;2023-09-08T08:18:12;3.95;;;2.35;;
80404;SDS011;69733;48.744;9.176;2023-09-08T08:20:37;3.95;;;2.33;;
80404;SDS011;69733;48.744;9.176;2023-09-08T08:23:04;5.68;;;3.10;;
80404;SDS011;69733;48.744;9.176;2023-09-08T08:25:33;4.90;;;2.60;;
80404;SDS011;69733;48.744;9.176;2023-09-08T08:27:59;4.40;;;2.75;;
80404;SDS011;69733;48.744;9.176;2023-09-08T08:30:26;5.80;;;3.00;;
80404;SDS011;69733;48.744;9.176;2023-09-08T08:32:52;4.75;;;2.60;;
80404;SDS011;69733;48.744;9.176;2023-09-08T08:35:20;5.55;;;3.22;;
80404;SDS011;69733;48.744;9.176;2023-09-08T08:37:45;5.40;;;2.65;;
80404;SDS011;69733;48.744;9.176;2023-09-08T08:40:11;5.22;;;2.83;;
80404;SDS011;69733;48.744;9.176;2023-09-08T08:42:40;3.75;;;2.78;;
80404;SDS011;69733;48.744;9.176;2023-09-08T08:45:06;3.63;;;2.67;;
80404;SDS011;69733;48.744;9.176;2023-09-08T08:47:32;4.57;;;2.58;;
80404;SDS011;69733;48.744;9.176;2023-09-08T08:49:58;4.50;;;3.00;;
80404;SDS011;69733;48.744;9.176;2023-09-08T08:52:27;3.45;;;2.30;;
80404;SDS011;69733;48.744;9.176;2023-09-08T08:54:53;3.72;;;2.50;;
80404;SDS011;69733;48.744;9.176;2023-09-08T08:57:22;5.57;;;3.33;;
80404;SDS011;69733;48.744;9.176;2023-09-08T08:59:48;4.38;;;2.72;;
80404;SDS011;69733;48.744;9.176;2023-09-08T09:02:16;5.25;;;2.92;;
80404;SDS011;69733;48.744;9.176;2023-09-08T09:04:46;4.03;;;2.60;;
80404;SDS011;69733;48.744;9.176;2023-09-08T09:07:12;4.40;;;2.90;;
80404;SDS011;69733;48.744;9.176;2023-09-08T09:09:43;4.00;;;2.38;;
80404;SDS011;69733;48.744;9.176;2023-09-08T09:12:08;4.30;;;2.20;;
80404;SDS011;69733;48.744;9.176;2023-09-08T09:14:33;4.28;;;2.60;;
80404;SDS011;69733;48.744;9.176;2023-09-08T09:17:00;3.50;;;2.38;;
80404;SDS011;69733;48.744;9.176;2023-09-08T09:19:26;4.22;;;2.88;;
80404;SDS011;69733;48.744;9.176;2023-09-08T09:21:56;3.72;;;3.08;;
80404;SDS011;69733;48.744;9.176;2023-09-08T09:27:02;3.85;;;2.60;;
80404;SDS011;69733;48.744;9.176;2023-09-08T09:29:30;3.40;;;2.33;;
80404;SDS011;69733;48.744;9.176;2023-09-08T09:32:06;4.60;;;3.28;;
80404;SDS011;69733;48.744;9.176;2023-09-08T09:34:35;4.70;;;2.53;;
80404;SDS011;69733;48.744;9.176;2023-09-08T09:37:00;4.45;;;2.55;;
80404;SDS011;69733;48.744;9.176;2023-09-08T09:39:26;3.90;;;2.80;;
80404;SDS011;69733;48.744;9.176;2023-09-08T09:41:58;4.30;;;2.58;;
80404;SDS011;69733;48.744;9.176;2023-09-08T09:44:24;4.03;;;2.70;;
80404;SDS011;69733;48.744;9.176;2023-09-08T09:46:53;3.67;;;2.42;;
80404;SDS011;69733;48.744;9.176;2023-09-08T09:49:19;3.30;;;2.33;;
80404;SDS011;69733;48.744;9.176;2023-09-08T09:51:46;4.20;;;2.72;;
80404;SDS011;69733;48.744;9.176;2023-09-08T09:54:13;4.50;;;2.80;;
80404;SDS011;69733;48.744;9.176;2023-09-08T09:56:39;4.35;;;2.97;;
80404;SDS011;69733;48.744;9.176;2023-09-08T09:59:09;3.28;;;2.47;;
80404;SDS011;69733;48.744;9.176;2023-09-08T10:01:36;3.85;;;2.65;;
80404;SDS011;69733;48.744;9.176;2023-09-08T10:04:04;3.50;;;2.72;;
80404;SDS011;69733;48.744;9.176;2023-09-08T10:06:31;3.97;;;2.70;;
80404;SDS011;69733;48.744;9.176;2023-09-08T10:08:58;4.10;;;2.72;;
80404;SDS011;69733;48.744;9.176;2023-09-08T10:11:25;5.07;;;2.95;;
80404;SDS011;69733;48.744;9.176;2023-09-08T10:13:54;3.78;;;2.70;;
80404;SDS011;69733;48.744;9.176;2023-09-08T10:16:23;3.58;;;2.55;;
80404;SDS011;69733;48.744;9.176;2023-09-08T10:18:51;2.35;;;2.03;;
80404;SDS011;69733;48.744;9.176;2023-09-08T10:21:17;4.95;;;2.88;;
80404;SDS011;69733;48.744;9.176;2023-09-08T10:23:44;3.78;;;2.65;;
80404;SDS011;69733;48.744;9.176;2023-09-08T10:26:19;3.50;;;2.85;;
80404;SDS011;69733;48.744;9.176;2023-09-08T10:28:50;4.03;;;2.90;;
80404;SDS011;69733;48.744;9.176;2023-09-08T10:31:20;3.22;;;2.17;;
80404;SDS011;69733;48.744;9.176;2023-09-08T10:33:48;3.17;;;2.30;;
80404;SDS011;69733;48.744;9.176;2023-09-08T10:36:14;4.30;;;2.60;;
80404;SDS011;69733;48.744;9.176;2023-09-08T10:38:39;5.13;;;2.70;;
80404;SDS011;69733;48.744;9.176;2023-09-08T10:43:57;4.32;;;2.50;;
80404;SDS011;69733;48.744;9.176;2023-09-08T10:46:27;3.83;;;2.47;;
80404;SDS011;69733;48.744;9.176;2023-09-08T10:48:53;3.45;;;2.40;;
80404;SDS011;69733;48.744;9.176;2023-09-08T10:51:20;4.20;;;2.55;;
80404;SDS011;69733;48.744;9.176;2023-09-08T10:56:14;3.88;;;2.60;;
80404;SDS011;69733;48.744;9.176;2023-09-08T10:58:40;3.50;;;1.80;;
80404;SDS011;69733;48.744;9.176;2023-09-08T11:01:07;3.22;;;2.28;;
80404;SDS011;69733;48.744;9.176;2023-09-08T11:06:06;4.30;;;1.80;;
80404;SDS011;69733;48.744;9.176;2023-09-08T11:08:33;2.83;;;2.10;;
80404;SDS011;69733;48.744;9.176;2023-09-08T11:11:00;3.60;;;1.85;;
80404;SDS011;69733;48.744;9.176;2023-09-08T11:13:26;4.13;;;1.95;;
80404;SDS011;69733;48.744;9.176;2023-09-08T11:15:53;2.92;;;1.80;;
80404;SDS011;69733;48.744;9.176;2023-09-08T11:18:28;3.15;;;1.55;;
80404;SDS011;69733;48.744;9.176;2023-09-08T11:20:55;2.80;;;1.65;;
80404;SDS011;69733;48.744;9.176;2023-09-08T11:23:21;3.38;;;2.00;;
80404;SDS011;69733;48.744;9.176;2023-09-08T11:25:47;2.28;;;1.42;;
80404;SDS011;69733;48.744;9.176;2023-09-08T11:28:14;4.20;;;1.95;;
80404;SDS011;69733;48.744;9.176;2023-09-08T11:30:39;2.58;;;1.83;;
80404;SDS011;69733;48.744;9.176;2023-09-08T11:33:13;2.85;;;1.70;;
80404;SDS011;69733;48.744;9.176;2023-09-08T11:35:45;2.55;;;1.55;;
80404;SDS011;69733;48.744;9.176;2023-09-08T11:40:36;2.73;;;1.73;;
80404;SDS011;69733;48.744;9.176;2023-09-08T11:43:04;2.70;;;1.63;;
80404;SDS011;69733;48.744;9.176;2023-09-08T11:45:31;4.88;;;2.10;;
80404;SDS011;69733;48.744;9.176;2023-09-08T11:47:59;3.50;;;1.70;;
80404;SDS011;69733;48.744;9.176;2023-09-08T11:50:25;3.60;;;2.33;;
80404;SDS011;69733;48.744;9.176;2023-09-08T11:52:51;5.78;;;1.95;;
80404;SDS011;69733;48.744;9.176;2023-09-08T11:55:18;3.90;;;1.75;;
80404;SDS011;69733;48.744;9.176;2023-09-08T11:57:51;3.97;;;1.92;;
80404;SDS011;69733;48.744;9.176;2023-09-08T12:00:20;3.08;;;1.75;;
80404;SDS011;69733;48.744;9.176;2023-09-08T12:02:49;2.83;;;1.77;;
80404;SDS011;69733;48.744;9.176;2023-09-08T12:05:25;2.33;;;1.25;;
80404;SDS011;69733;48.744;9.176;2023-09-08T12:07:52;2.28;;;1.50;;
80404;SDS011;69733;48.744;9.176;2023-09-08T12:10:23;2.95;;;1.60;;
80404;SDS011;69733;48.744;9.176;2023-09-08T12:12:50;4.15;;;1.88;;
80404;SDS011;69733;48.744;9.176;2023-09-08T12:15:37;3.33;;;2.05;;
80404;SDS011;69733;48.744;9.176;2023-09-08T12:18:08;4.05;;;1.73;;
80404;SDS011;69733;48.744;9.176;2023-09-08T12:20:40;2.38;;;1.27;;
80404;SDS011;69733;48.744;9.176;2023-09-08T12:23:14;3.15;;;2.40;;
80404;SDS011;69733;48.744;9.176;2023-09-08T12:25:46;3.60;;;2.00;;
80404;SDS011;69733;48.744;9.176;2023-09-08T12:28:22;2.63;;;1.83;;
80404;SDS011;69733;48.744;9.176;2023-09-08T12:30:48;3.03;;;1.98;;
80404;SDS011;69733;48.744;9.176;2023-09-08T12:33:14;3.13;;;2.28;;
80404;SDS011;69733;48.744;9.176;2023-09-08T12:35:45;3.30;;;1.73;;
80404;SDS011;69733;48.744;9.176;2023-09-08T12:38:13;3.15;;;1.98;;
80404;SDS011;69733;48.744;9.176;2023-09-08T12:40:39;4.28;;;2.22;;
80404;SDS011;69733;48.744;9.176;2023-09-08T12:43:04;2.67;;;2.20;;
80404;SDS011;69733;48.744;9.176;2023-09-08T12:45:30;2.90;;;1.90;;
80404;SDS011;69733;48.744;9.176;2023-09-08T12:47:58;3.50;;;1.83;;
80404;SDS011;69733;48.744;9.176;2023-09-08T12:50:25;4.38;;;1.70;;
80404;SDS011;69733;48.744;9.176;2023-09-08T12:52:53;4.72;;;1.80;;
80404;SDS011;69733;48.744;9.176;2023-09-08T12:55:19;5.65;;;2.15;;
80404;SDS011;69733;48.744;9.176;2023-09-08T12:57:49;3.17;;;1.83;;
80404;SDS011;69733;48.744;9.176;2023-09-08T13:00:17;3.03;;;1.75;;
80404;SDS011;69733;48.744;9.176;2023-09-08T13:02:43;3.38;;;1.65;;
80404;SDS011;69733;48.744;9.176;2023-09-08T13:05:09;3.72;;;2.15;;
80404;SDS011;69733;48.744;9.176;2023-09-08T13:07:34;2.35;;;1.52;;
80404;SDS011;69733;48.744;9.176;2023-09-08T13:10:00;2.38;;;1.50;;
80404;SDS011;69733;48.744;9.176;2023-09-08T13:12:25;3.95;;;2.25;;
80404;SDS011;69733;48.744;9.176;2023-09-08T13:14:51;2.45;;;1.50;;
80404;SDS011;69733;48.744;9.176;2023-09-08T13:17:16;2.60;;;1.83;;
80404;SDS011;69733;48.744;9.176;2023-09-08T13:19:42;3.20;;;1.88;;
80404;SDS011;69733;48.744;9.176;2023-09-08T13:22:08;2.95;;;1.75;;
80404;SDS011;69733;48.744;9.176;2023-09-08T13:24:33;2.55;;;1.40;;
80404;SDS011;69733;48.744;9.176;2023-09-08T13:26:59;2.65;;;1.85;;
80404;SDS011;69733;48.744;9.176;2023-09-08T13:29:25;2.92;;;0.98;;
80404;SDS011;69733;48.744;9.176;2023-09-08T13:31:52;2.50;;;1.65;;
80404;SDS011;69733;48.744;9.176;2023-09-08T13:34:17;2.70;;;1.60;;
80404;SDS011;69733;48.744;9.176;2023-09-08T13:36:43;1.80;;;1.27;;
80404;SDS011;69733;48.744;9.176;2023-09-08T13:39:08;4.63;;;1.65;;
80404;SDS011;69733;48.744;9.176;2023-09-08T13:44:22;2.00;;;1.45;;
80404;SDS011;69733;48.744;9.176;2023-09-08T13:46:52;3.28;;;1.65;;
80404;SDS011;69733;48.744;9.176;2023-09-08T13:49:18;2.42;;;1.65;;
80404;SDS011;69733;48.744;9.176;2023-09-08T13:51:45;4.55;;;1.60;;
80404;SDS011;69733;48.744;9.176;2023-09-08T13:54:10;5.45;;;2.17;;
80404;SDS011;69733;48.744;9.176;2023-09-08T13:56:40;2.85;;;1.38;;
80404;SDS011;69733;48.744;9.176;2023-09-08T13:59:06;2.75;;;1.40;;
80404;SDS011;69733;48.744;9.176;2023-09-08T14:01:35;2.95;;;1.60;;
80404;SDS011;69733;48.744;9.176;2023-09-08T14:04:02;3.65;;;1.95;;
80404;SDS011;69733;48.744;9.176;2023-09-08T14:06:28;3.55;;;1.63;;
80404;SDS011;69733;48.744;9.176;2023-09-08T14:08:54;3.72;;;1.92;;
80404;SDS011;69733;48.744;9.176;2023-09-08T14:11:20;2.05;;;1.50;;
80404;SDS011;69733;48.744;9.176;2023-09-08T14:13:48;3.08;;;1.85;;
80404;SDS011;69733;48.744;9.176;2023-09-08T14:16:14;2.88;;;1.73;;
80404;SDS011;69733;48.744;9.176;2023-09-08T14:18:43;3.72;;;2.03;;
80404;SDS011;69733;48.744;9.176;2023-09-08T14:21:08;3.20;;;1.20;;
80404;SDS011;69733;48.744;9.176;2023-09-08T14:23:33;2.20;;;1.25;;
80404;SDS011;69733;48.744;9.176;2023-09-08T14:25:59;3.33;;;1.65;;
80404;SDS011;69733;48.744;9.176;2023-09-08T14:28:24;3.42;;;1.90;;
80404;SDS011;69733;48.744;9.176;2023-09-08T14:30:50;1.70;;;1.08;;
80404;SDS011;69733;48.744;9.176;2023-09-08T14:33:16;2.78;;;1.52;;
80404;SDS011;69733;48.744;9.176;2023-09-08T14:35:42;2.70;;;1.83;;
80404;SDS011;69733;48.744;9.176;2023-09-08T14:38:08;2.30;;;1.50;;
80404;SDS011;69733;48.744;9.176;2023-09-08T14:40:34;2.40;;;1.75;;
80404;SDS011;69733;48.744;9.176;2023-09-08T14:42:59;2.90;;;1.35;;
80404;SDS011;69733;48.744;9.176;2023-09-08T14:45:24;2.23;;;1.53;;
80404;SDS011;69733;48.744;9.176;2023-09-08T14:47:51;4.53;;;1.38;;
80404;SDS011;69733;48.744;9.176;2023-09-08T14:50:17;2.15;;;1.25;;
80404;SDS011;69733;48.744;9.176;2023-09-08T14:52:42;4.10;;;1.83;;
80404;SDS011;69733;48.744;9.176;2023-09-08T14:55:08;2.43;;;1.27;;
80404;SDS011;69733;48.744;9.176;2023-09-08T14:57:34;2.47;;;1.60;;
80404;SDS011;69733;48.744;9.176;2023-09-08T14:59:59;3.40;;;1.60;;
80404;SDS011;69733;48.744;9.176;2023-09-08T15:02:24;1.80;;;1.23;;